Weather at Charles de Gaulle International Airport

Public forecast

Using degrees Celsius for public forecast. Weather courtesy of forecast.io.

Current aviation weather report (METAR) for Charles de Gaulle International Airport

Retrieved 2021/10/19 20:30 UTC (13 minutes ago):

LFPG 192030Z 19012KT CAVOK 18/11 Q1017 NOSIG

Aviation forecast (TAF) for Charles de Gaulle International Airport

Retrieved 2021/10/19 18:24 UTC (2 hours ago):

TAF LFPG 191700Z 1918/2024 19010KT CAVOK TX20/2014Z TN14/2024Z BECMG 2003/2005 22015G25KT PROB40 TEMPO 2012/2018 22020G35KT 3000 SHRA SCT030TCU TEMPO 2019/2024 22020G40KT 3000 RA BKN020TCU